sensor_id;sensor_type;location;lat;lon;timestamp;pressure;altitude;pressure_sealevel;temperature;humidity
79729;BME280;69218;52.132;5.418;2024-03-06T00:01:12;101934.94;;;6.36;100.00
79729;BME280;69218;52.132;5.418;2024-03-06T00:03:38;101937.63;;;6.35;100.00
79729;BME280;69218;52.132;5.418;2024-03-06T00:06:05;101945.47;;;6.33;100.00
79729;BME280;69218;52.132;5.418;2024-03-06T00:08:31;101941.19;;;6.32;100.00
79729;BME280;69218;52.132;5.418;2024-03-06T00:10:58;101942.19;;;6.29;100.00
79729;BME280;69218;52.132;5.418;2024-03-06T00:13:25;101947.47;;;6.28;100.00
79729;BME280;69218;52.132;5.418;2024-03-06T00:15:51;101957.91;;;6.26;100.00
79729;BME280;69218;52.132;5.418;2024-03-06T00:18:18;101966.66;;;6.25;100.00
79729;BME280;69218;52.132;5.418;2024-03-06T00:20:44;101955.28;;;6.28;100.00
79729;BME280;69218;52.132;5.418;2024-03-06T00:23:11;101963.97;;;6.27;100.00
79729;BME280;69218;52.132;5.418;2024-03-06T00:25:37;101965.72;;;6.26;100.00
79729;BME280;69218;52.132;5.418;2024-03-06T00:28:04;101960.53;;;6.26;100.00
79729;BME280;69218;52.132;5.418;2024-03-06T00:30:35;101961.44;;;6.25;100.00
79729;BME280;69218;52.132;5.418;2024-03-06T00:33:02;101957.22;;;6.23;100.00
79729;BME280;69218;52.132;5.418;2024-03-06T00:35:28;101967.72;;;6.21;100.00
79729;BME280;69218;52.132;5.418;2024-03-06T00:37:55;101964.25;;;6.21;100.00
79729;BME280;69218;52.132;5.418;2024-03-06T00:40:22;101970.34;;;6.20;100.00
79729;BME280;69218;52.132;5.418;2024-03-06T00:42:49;101971.22;;;6.20;100.00
79729;BME280;69218;52.132;5.418;2024-03-06T00:45:16;101973.94;;;6.17;100.00
79729;BME280;69218;52.132;5.418;2024-03-06T00:47:42;101971.41;;;6.16;100.00
79729;BME280;69218;52.132;5.418;2024-03-06T00:50:09;101974.94;;;6.15;100.00
79729;BME280;69218;52.132;5.418;2024-03-06T00:52:36;101980.16;;;6.15;100.00
79729;BME280;69218;52.132;5.418;2024-03-06T00:55:02;101974.09;;;6.14;100.00
79729;BME280;69218;52.132;5.418;2024-03-06T00:57:29;101973.25;;;6.14;100.00
79729;BME280;69218;52.132;5.418;2024-03-06T00:59:56;101981.91;;;6.14;100.00
79729;BME280;69218;52.132;5.418;2024-03-06T01:02:23;101982.75;;;6.15;100.00
79729;BME280;69218;52.132;5.418;2024-03-06T01:04:49;101980.16;;;6.15;100.00
79729;BME280;69218;52.132;5.418;2024-03-06T01:07:16;101976.81;;;6.11;100.00
79729;BME280;69218;52.132;5.418;2024-03-06T01:09:43;101985.47;;;6.12;100.00
79729;BME280;69218;52.132;5.418;2024-03-06T01:12:09;101989.81;;;6.11;100.00
79729;BME280;69218;52.132;5.418;2024-03-06T01:14:37;101990.66;;;6.12;100.00
79729;BME280;69218;52.132;5.418;2024-03-06T01:17:06;101994.13;;;6.12;100.00
79729;BME280;69218;52.132;5.418;2024-03-06T01:19:32;101990.66;;;6.12;100.00
79729;BME280;69218;52.132;5.418;2024-03-06T01:21:59;101997.63;;;6.11;100.00
79729;BME280;69218;52.132;5.418;2024-03-06T01:24:32;101997.63;;;6.11;100.00
79729;BME280;69218;52.132;5.418;2024-03-06T01:26:58;102000.25;;;6.11;100.00
79729;BME280;69218;52.132;5.418;2024-03-06T01:29:29;101994.19;;;6.11;100.00
79729;BME280;69218;52.132;5.418;2024-03-06T01:31:55;101998.47;;;6.12;100.00
79729;BME280;69218;52.132;5.418;2024-03-06T01:34:22;102007.13;;;6.12;100.00
79729;BME280;69218;52.132;5.418;2024-03-06T01:36:48;102007.13;;;6.12;100.00
79729;BME280;69218;52.132;5.418;2024-03-06T01:39:15;102012.28;;;6.14;100.00
79729;BME280;69218;52.132;5.418;2024-03-06T01:41:49;102010.56;;;6.13;100.00
79729;BME280;69218;52.132;5.418;2024-03-06T01:44:17;102008.84;;;6.13;100.00
79729;BME280;69218;52.132;5.418;2024-03-06T01:46:45;102008.84;;;6.13;100.00
79729;BME280;69218;52.132;5.418;2024-03-06T01:49:12;102003.66;;;6.13;100.00
79729;BME280;69218;52.132;5.418;2024-03-06T01:51:49;102004.53;;;6.12;100.00
79729;BME280;69218;52.132;5.418;2024-03-06T01:54:17;102004.66;;;6.09;100.00
79729;BME280;69218;52.132;5.418;2024-03-06T01:56:45;102001.34;;;6.05;100.00
79729;BME280;69218;52.132;5.418;2024-03-06T01:59:13;102005.00;;;6.01;100.00
79729;BME280;69218;52.132;5.418;2024-03-06T02:01:54;102006.88;;;5.98;100.00
79729;BME280;69218;52.132;5.418;2024-03-06T02:04:22;102010.53;;;5.94;100.00
79729;BME280;69218;52.132;5.418;2024-03-06T02:06:50;102009.81;;;5.89;100.00
79729;BME280;69218;52.132;5.418;2024-03-06T02:09:16;102013.44;;;5.85;100.00
79729;BME280;69218;52.132;5.418;2024-03-06T02:11:44;102015.41;;;5.79;100.00
79729;BME280;69218;52.132;5.418;2024-03-06T02:14:11;102016.44;;;5.75;100.00
79729;BME280;69218;52.132;5.418;2024-03-06T02:16:37;102024.44;;;5.71;100.00
79729;BME280;69218;52.132;5.418;2024-03-06T02:19:07;102022.94;;;5.65;100.00
79729;BME280;69218;52.132;5.418;2024-03-06T02:21:34;102019.72;;;5.59;100.00
79729;BME280;69218;52.132;5.418;2024-03-06T02:24:01;102027.69;;;5.54;100.00
79729;BME280;69218;52.132;5.418;2024-03-06T02:26:28;102019.97;;;5.53;100.00
79729;BME280;69218;52.132;5.418;2024-03-06T02:28:56;102027.03;;;5.49;100.00
79729;BME280;69218;52.132;5.418;2024-03-06T02:31:23;102024.56;;;5.46;100.00
79729;BME280;69218;52.132;5.418;2024-03-06T02:33:50;102022.13;;;5.41;100.00
79729;BME280;69218;52.132;5.418;2024-03-06T02:36:17;102025.78;;;5.37;100.00
79729;BME280;69218;52.132;5.418;2024-03-06T02:38:44;102025.88;;;5.34;100.00
79729;BME280;69218;52.132;5.418;2024-03-06T02:41:11;102027.69;;;5.32;100.00
79729;BME280;69218;52.132;5.418;2024-03-06T02:43:40;102026.84;;;5.32;100.00
79729;BME280;69218;52.132;5.418;2024-03-06T02:46:06;102035.63;;;5.29;100.00
79729;BME280;69218;52.132;5.418;2024-03-06T02:48:33;102034.88;;;5.26;100.00
79729;BME280;69218;52.132;5.418;2024-03-06T02:50:59;102035.84;;;5.23;100.00
79729;BME280;69218;52.132;5.418;2024-03-06T02:53:26;102037.53;;;5.24;100.00
79729;BME280;69218;52.132;5.418;2024-03-06T02:55:54;102036.75;;;5.22;100.00
79729;BME280;69218;52.132;5.418;2024-03-06T02:58:20;102030.94;;;5.15;100.00
79729;BME280;69218;52.132;5.418;2024-03-06T03:00:47;102031.03;;;5.12;100.00
79729;BME280;69218;52.132;5.418;2024-03-06T03:03:14;102033.84;;;5.08;100.00
79729;BME280;69218;52.132;5.418;2024-03-06T03:05:41;102034.97;;;5.01;100.00
79729;BME280;69218;52.132;5.418;2024-03-06T03:08:08;102036.81;;;4.97;100.00
79729;BME280;69218;52.132;5.418;2024-03-06T03:10:35;102041.28;;;4.93;100.00
79729;BME280;69218;52.132;5.418;2024-03-06T03:13:01;102039.47;;;4.95;100.00
79729;BME280;69218;52.132;5.418;2024-03-06T03:15:28;102046.31;;;4.98;100.00
79729;BME280;69218;52.132;5.418;2024-03-06T03:17:55;102039.34;;;4.99;100.00
79729;BME280;69218;52.132;5.418;2024-03-06T03:20:21;102042.00;;;4.97;100.00
79729;BME280;69218;52.132;5.418;2024-03-06T03:22:48;102039.47;;;4.95;100.00
79729;BME280;69218;52.132;5.418;2024-03-06T03:25:14;102038.72;;;4.92;100.00
79729;BME280;69218;52.132;5.418;2024-03-06T03:27:41;102044.91;;;4.89;100.00
79729;BME280;69218;52.132;5.418;2024-03-06T03:30:08;102043.28;;;4.87;100.00
79729;BME280;69218;52.132;5.418;2024-03-06T03:32:35;102044.97;;;4.88;100.00
79729;BME280;69218;52.132;5.418;2024-03-06T03:35:08;102044.97;;;4.88;100.00
79729;BME280;69218;52.132;5.418;2024-03-06T03:37:34;102042.44;;;4.86;100.00
79729;BME280;69218;52.132;5.418;2024-03-06T03:40:05;102051.16;;;4.84;100.00
79729;BME280;69218;52.132;5.418;2024-03-06T03:42:31;102047.84;;;4.80;100.00
79729;BME280;69218;52.132;5.418;2024-03-06T03:44:58;102052.41;;;4.74;100.00
79729;BME280;69218;52.132;5.418;2024-03-06T03:47:25;102056.97;;;4.67;100.00
79729;BME280;69218;52.132;5.418;2024-03-06T03:49:52;102056.28;;;4.62;100.00
79729;BME280;69218;52.132;5.418;2024-03-06T03:52:35;102055.53;;;4.58;100.00
79729;BME280;69218;52.132;5.418;2024-03-06T03:55:02;102054.63;;;4.59;100.00
79729;BME280;69218;52.132;5.418;2024-03-06T03:57:29;102057.44;;;4.53;100.00
79729;BME280;69218;52.132;5.418;2024-03-06T03:59:56;102059.28;;;4.50;100.00
79729;BME280;69218;52.132;5.418;2024-03-06T04:02:23;102060.13;;;4.50;100.00
79729;BME280;69218;52.132;5.418;2024-03-06T04:04:52;102059.34;;;4.48;100.00
79729;BME280;69218;52.132;5.418;2024-03-06T04:07:19;102060.41;;;4.43;100.00
79729;BME280;69218;52.132;5.418;2024-03-06T04:09:45;102058.81;;;4.38;100.00
79729;BME280;69218;52.132;5.418;2024-03-06T04:12:13;102073.44;;;4.41;100.00
79729;BME280;69218;52.132;5.418;2024-03-06T04:14:40;102063.91;;;4.41;100.00
79729;BME280;69218;52.132;5.418;2024-03-06T04:17:06;102065.72;;;4.39;100.00
79729;BME280;69218;52.132;5.418;2024-03-06T04:19:33;102066.69;;;4.35;100.00
79729;BME280;69218;52.132;5.418;2024-03-06T04:21:59;102070.31;;;4.31;100.00
79729;BME280;69218;52.132;5.418;2024-03-06T04:24:26;102071.50;;;4.21;100.00
79729;BME280;69218;52.132;5.418;2024-03-06T04:26:53;102068.91;;;4.21;100.00
79729;BME280;69218;52.132;5.418;2024-03-06T04:29:19;102071.56;;;4.20;100.00
79729;BME280;69218;52.132;5.418;2024-03-06T04:31:46;102067.28;;;4.19;100.00
79729;BME280;69218;52.132;5.418;2024-03-06T04:34:12;102076.88;;;4.17;100.00
79729;BME280;69218;52.132;5.418;2024-03-06T04:36:39;102077.06;;;4.10;100.00
79729;BME280;69218;52.132;5.418;2024-03-06T04:39:05;102077.13;;;4.09;100.00
79729;BME280;69218;52.132;5.418;2024-03-06T04:41:34;102086.75;;;4.05;100.00
79729;BME280;69218;52.132;5.418;2024-03-06T04:44:00;102084.28;;;4.01;100.00
79729;BME280;69218;52.132;5.418;2024-03-06T04:46:27;102092.13;;;3.99;100.00
79729;BME280;69218;52.132;5.418;2024-03-06T04:48:53;102088.59;;;4.02;100.00
79729;BME280;69218;52.132;5.418;2024-03-06T04:51:20;102096.38;;;4.02;100.00
79729;BME280;69218;52.132;5.418;2024-03-06T04:53:48;102098.16;;;4.00;100.00
79729;BME280;69218;52.132;5.418;2024-03-06T04:56:14;102104.53;;;3.90;100.00
79729;BME280;69218;52.132;5.418;2024-03-06T04:58:42;102099.84;;;3.74;100.00
79729;BME280;69218;52.132;5.418;2024-03-06T05:01:11;102111.13;;;3.72;100.00
79729;BME280;69218;52.132;5.418;2024-03-06T05:03:39;102115.63;;;3.67;100.00
79729;BME280;69218;52.132;5.418;2024-03-06T05:06:23;102106.97;;;3.68;100.00
79729;BME280;69218;52.132;5.418;2024-03-06T05:09:07;102108.69;;;3.67;100.00
79729;BME280;69218;52.132;5.418;2024-03-06T05:11:54;102116.47;;;3.67;100.00
79729;BME280;69218;52.132;5.418;2024-03-06T05:14:38;102113.06;;;3.65;100.00
79729;BME280;69218;52.132;5.418;2024-03-06T05:17:22;102124.28;;;3.66;100.00
79729;BME280;69218;52.132;5.418;2024-03-06T05:20:07;102124.38;;;3.63;100.00
79729;BME280;69218;52.132;5.418;2024-03-06T05:22:51;102126.19;;;3.61;100.00
79729;BME280;69218;52.132;5.418;2024-03-06T05:25:35;102134.75;;;3.63;100.00
79729;BME280;69218;52.132;5.418;2024-03-06T05:28:19;102134.69;;;3.64;100.00
79729;BME280;69218;52.132;5.418;2024-03-06T05:31:18;102140.91;;;3.58;100.00
79729;BME280;69218;52.132;5.418;2024-03-06T05:34:02;102150.44;;;3.58;100.00
79729;BME280;69218;52.132;5.418;2024-03-06T05:36:49;102149.53;;;3.59;100.00
79729;BME280;69218;52.132;5.418;2024-03-06T05:39:33;102144.34;;;3.59;100.00
79729;BME280;69218;52.132;5.418;2024-03-06T05:42:17;102152.19;;;3.57;100.00
79729;BME280;69218;52.132;5.418;2024-03-06T05:45:01;102154.03;;;3.54;100.00
79729;BME280;69218;52.132;5.418;2024-03-06T05:47:48;102152.34;;;3.53;100.00
79729;BME280;69218;52.132;5.418;2024-03-06T05:50:33;102154.09;;;3.51;100.00
79729;BME280;69218;52.132;5.418;2024-03-06T05:53:16;102162.81;;;3.48;100.00
79729;BME280;69218;52.132;5.418;2024-03-06T05:56:00;102158.59;;;3.46;100.00
79729;BME280;69218;52.132;5.418;2024-03-06T05:58:44;102174.22;;;3.43;100.00
79729;BME280;69218;52.132;5.418;2024-03-06T06:01:14;102169.81;;;3.45;100.00
79729;BME280;69218;52.132;5.418;2024-03-06T06:03:41;102179.41;;;3.43;100.00
79729;BME280;69218;52.132;5.418;2024-03-06T06:06:08;102175.16;;;3.40;100.00
79729;BME280;69218;52.132;5.418;2024-03-06T06:08:34;102183.06;;;3.36;100.00
79729;BME280;69218;52.132;5.418;2024-03-06T06:11:01;102185.00;;;3.27;100.00
79729;BME280;69218;52.132;5.418;2024-03-06T06:13:29;102197.13;;;3.27;100.00
79729;BME280;69218;52.132;5.418;2024-03-06T06:15:58;102193.63;;;3.28;100.00
79729;BME280;69218;52.132;5.418;2024-03-06T06:18:24;102192.84;;;3.26;100.00
79729;BME280;69218;52.132;5.418;2024-03-06T06:20:51;102202.25;;;3.28;100.00
79729;BME280;69218;52.132;5.418;2024-03-06T06:23:17;102196.31;;;3.25;100.00
79729;BME280;69218;52.132;5.418;2024-03-06T06:25:44;102200.72;;;3.21;100.00
79729;BME280;69218;52.132;5.418;2024-03-06T06:28:11;102204.97;;;3.24;100.00
79729;BME280;69218;52.132;5.418;2024-03-06T06:30:37;102210.91;;;3.27;100.00
79729;BME280;69218;52.132;5.418;2024-03-06T06:33:07;102216.84;;;3.31;100.00
79729;BME280;69218;52.132;5.418;2024-03-06T06:35:34;102215.16;;;3.32;100.00
79729;BME280;69218;52.132;5.418;2024-03-06T06:38:01;102216.78;;;3.34;100.00
79729;BME280;69218;52.132;5.418;2024-03-06T06:40:28;102225.50;;;3.32;100.00
79729;BME280;69218;52.132;5.418;2024-03-06T06:42:55;102229.81;;;3.31;100.00
79729;BME280;69218;52.132;5.418;2024-03-06T06:45:21;102237.47;;;3.36;100.00
79729;BME280;69218;52.132;5.418;2024-03-06T06:47:49;102235.66;;;3.39;100.00
79729;BME280;69218;52.132;5.418;2024-03-06T06:50:16;102240.75;;;3.42;100.00
79729;BME280;69218;52.132;5.418;2024-03-06T06:52:42;102242.44;;;3.43;100.00
79729;BME280;69218;52.132;5.418;2024-03-06T06:55:09;102250.09;;;3.48;100.00
79729;BME280;69218;52.132;5.418;2024-03-06T06:57:38;102257.78;;;3.51;100.00
79729;BME280;69218;52.132;5.418;2024-03-06T07:00:05;102255.97;;;3.54;100.00
79729;BME280;69218;52.132;5.418;2024-03-06T07:02:38;102252.53;;;3.54;100.00
79729;BME280;69218;52.132;5.418;2024-03-06T07:05:08;102261.06;;;3.57;100.00
79729;BME280;69218;52.132;5.418;2024-03-06T07:07:35;102262.75;;;3.58;100.00
79729;BME280;69218;52.132;5.418;2024-03-06T07:10:02;102269.63;;;3.61;100.00
79729;BME280;69218;52.132;5.418;2024-03-06T07:12:30;102282.53;;;3.63;100.00
79729;BME280;69218;52.132;5.418;2024-03-06T07:14:57;102283.34;;;3.65;100.00
79729;BME280;69218;52.132;5.418;2024-03-06T07:17:24;102274.66;;;3.66;100.00
79729;BME280;69218;52.132;5.418;2024-03-06T07:19:51;102280.69;;;3.66;100.00
79729;BME280;69218;52.132;5.418;2024-03-06T07:22:19;102286.59;;;3.71;100.00
79729;BME280;69218;52.132;5.418;2024-03-06T07:24:45;102289.97;;;3.75;100.00
79729;BME280;69218;52.132;5.418;2024-03-06T07:27:12;102282.94;;;3.78;100.00
79729;BME280;69218;52.132;5.418;2024-03-06T07:29:39;102292.31;;;3.84;100.00
79729;BME280;69218;52.132;5.418;2024-03-06T07:32:06;102292.22;;;3.87;100.00
79729;BME280;69218;52.132;5.418;2024-03-06T07:34:33;102292.19;;;3.89;100.00
79729;BME280;69218;52.132;5.418;2024-03-06T07:36:59;102293.03;;;3.89;100.00
79729;BME280;69218;52.132;5.418;2024-03-06T07:39:29;102305.97;;;3.91;100.00
79729;BME280;69218;52.132;5.418;2024-03-06T07:41:57;102301.63;;;3.91;100.00
79729;BME280;69218;52.132;5.418;2024-03-06T07:44:24;102308.38;;;3.97;100.00
79729;BME280;69218;52.132;5.418;2024-03-06T07:46:50;102314.31;;;4.00;100.00
79729;BME280;69218;52.132;5.418;2024-03-06T07:49:17;102310.75;;;4.04;100.00
79729;BME280;69218;52.132;5.418;2024-03-06T07:51:43;102311.44;;;4.11;100.00
79729;BME280;69218;52.132;5.418;2024-03-06T07:54:10;102314.69;;;4.18;100.00
79729;BME280;69218;52.132;5.418;2024-03-06T07:56:37;102315.38;;;4.24;100.00
79729;BME280;69218;52.132;5.418;2024-03-06T07:59:04;102323.84;;;4.29;100.00
79729;BME280;69218;52.132;5.418;2024-03-06T08:01:31;102319.38;;;4.34;100.00
79729;BME280;69218;52.132;5.418;2024-03-06T08:03:59;102327.94;;;4.38;100.00
79729;BME280;69218;52.132;5.418;2024-03-06T08:06:25;102327.00;;;4.40;100.00
79729;BME280;69218;52.132;5.418;2024-03-06T08:08:53;102333.94;;;4.40;100.00
79729;BME280;69218;52.132;5.418;2024-03-06T08:11:24;102341.81;;;4.37;100.00
79729;BME280;69218;52.132;5.418;2024-03-06T08:13:59;102332.25;;;4.39;100.00
79729;BME280;69218;52.132;5.418;2024-03-06T08:16:27;102331.94;;;4.48;100.00
79729;BME280;69218;52.132;5.418;2024-03-06T08:18:55;102331.78;;;4.54;100.00
79729;BME280;69218;52.132;5.418;2024-03-06T08:21:22;102332.50;;;4.59;100.00
79729;BME280;69218;52.132;5.418;2024-03-06T08:23:49;102340.84;;;4.69;100.00
79729;BME280;69218;52.132;5.418;2024-03-06T08:26:16;102340.59;;;4.77;100.00
79729;BME280;69218;52.132;5.418;2024-03-06T08:28:43;102346.44;;;4.83;100.00
79729;BME280;69218;52.132;5.418;2024-03-06T08:31:09;102344.47;;;4.91;100.00
79729;BME280;69218;52.132;5.418;2024-03-06T08:33:36;102358.09;;;4.98;100.00
79729;BME280;69218;52.132;5.418;2024-03-06T08:36:04;102355.25;;;5.06;100.00
79729;BME280;69218;52.132;5.418;2024-03-06T08:38:30;102359.38;;;5.13;100.00
79729;BME280;69218;52.132;5.418;2024-03-06T08:40:57;102367.94;;;5.16;100.00
79729;BME280;69218;52.132;5.418;2024-03-06T08:43:23;102365.22;;;5.19;100.00
79729;BME280;69218;52.132;5.418;2024-03-06T08:45:50;102366.81;;;5.23;100.00
79729;BME280;69218;52.132;5.418;2024-03-06T08:48:16;102370.06;;;5.30;100.00
79729;BME280;69218;52.132;5.418;2024-03-06T08:50:44;102374.25;;;5.34;100.00
79729;BME280;69218;52.132;5.418;2024-03-06T08:53:12;102374.97;;;5.39;100.00
79729;BME280;69218;52.132;5.418;2024-03-06T08:55:40;102375.59;;;5.46;100.00
79729;BME280;69218;52.132;5.418;2024-03-06T08:58:07;102376.19;;;5.54;100.00
79729;BME280;69218;52.132;5.418;2024-03-06T09:00:35;102391.59;;;5.60;100.00
79729;BME280;69218;52.132;5.418;2024-03-06T09:03:01;102383.66;;;5.65;100.00
79729;BME280;69218;52.132;5.418;2024-03-06T09:05:28;102381.72;;;5.70;100.00
79729;BME280;69218;52.132;5.418;2024-03-06T09:07:55;102384.97;;;5.76;100.00
79729;BME280;69218;52.132;5.418;2024-03-06T09:10:27;102397.69;;;5.86;100.00
79729;BME280;69218;52.132;5.418;2024-03-06T09:12:54;102394.66;;;5.98;100.00
79729;BME280;69218;52.132;5.418;2024-03-06T09:15:21;102394.38;;;6.05;100.00
79729;BME280;69218;52.132;5.418;2024-03-06T09:17:48;102395.00;;;6.12;100.00
79729;BME280;69218;52.132;5.418;2024-03-06T09:20:15;102405.22;;;6.18;100.00
79729;BME280;69218;52.132;5.418;2024-03-06T09:22:43;102402.44;;;6.23;100.00
79729;BME280;69218;52.132;5.418;2024-03-06T09:25:11;102402.09;;;6.32;100.00
79729;BME280;69218;52.132;5.418;2024-03-06T09:27:40;102414.00;;;6.39;100.00
79729;BME280;69218;52.132;5.418;2024-03-06T09:30:06;102418.97;;;6.45;100.00
79729;BME280;69218;52.132;5.418;2024-03-06T09:32:35;102416.22;;;6.50;100.00
79729;BME280;69218;52.132;5.418;2024-03-06T09:35:01;102419.44;;;6.56;100.00
79729;BME280;69218;52.132;5.418;2024-03-06T09:37:29;102419.22;;;6.63;100.00
79729;BME280;69218;52.132;5.418;2024-03-06T09:39:56;102431.03;;;6.71;100.00
79729;BME280;69218;52.132;5.418;2024-03-06T09:42:23;102427.28;;;6.78;100.00
79729;BME280;69218;52.132;5.418;2024-03-06T09:44:50;102442.75;;;6.83;100.00
79729;BME280;69218;52.132;5.418;2024-03-06T09:47:21;102440.94;;;6.85;100.00
79729;BME280;69218;52.132;5.418;2024-03-06T09:49:51;102437.19;;;6.92;100.00
79729;BME280;69218;52.132;5.418;2024-03-06T09:52:19;102440.41;;;6.99;100.00
79729;BME280;69218;52.132;5.418;2024-03-06T09:54:48;102441.19;;;7.01;100.00
79729;BME280;69218;52.132;5.418;2024-03-06T09:57:14;102441.13;;;7.02;100.00
79729;BME280;69218;52.132;5.418;2024-03-06T09:59:43;102447.63;;;7.14;100.00
79729;BME280;69218;52.132;5.418;2024-03-06T10:02:28;102445.50;;;7.24;100.00
79729;BME280;69218;52.132;5.418;2024-03-06T10:04:55;102448.78;;;7.29;100.00
79729;BME280;69218;52.132;5.418;2024-03-06T10:07:21;102452.91;;;7.34;100.00
79729;BME280;69218;52.132;5.418;2024-03-06T10:09:48;102453.44;;;7.42;100.00
79729;BME280;69218;52.132;5.418;2024-03-06T10:12:17;102454.13;;;7.48;100.00
79729;BME280;69218;52.132;5.418;2024-03-06T10:14:52;102455.56;;;7.55;100.00
79729;BME280;69218;52.132;5.418;2024-03-06T10:17:19;102455.81;;;7.49;100.00
79729;BME280;69218;52.132;5.418;2024-03-06T10:19:49;102455.69;;;7.52;100.00
79729;BME280;69218;52.132;5.418;2024-03-06T10:22:19;102452.63;;;7.62;100.00
79729;BME280;69218;52.132;5.418;2024-03-06T10:24:47;102457.88;;;7.83;100.00
79729;BME280;69218;52.132;5.418;2024-03-06T10:27:15;102457.94;;;8.02;100.00
79729;BME280;69218;52.132;5.418;2024-03-06T10:29:45;102455.66;;;8.14;100.00
79729;BME280;69218;52.132;5.418;2024-03-06T10:32:16;102459.34;;;8.29;100.00
79729;BME280;69218;52.132;5.418;2024-03-06T10:34:45;102465.75;;;8.42;100.00
79729;BME280;69218;52.132;5.418;2024-03-06T10:37:12;102461.88;;;8.51;100.00
79729;BME280;69218;52.132;5.418;2024-03-06T10:39:42;102464.72;;;8.65;100.00
79729;BME280;69218;52.132;5.418;2024-03-06T10:42:12;102462.41;;;8.78;100.00
79729;BME280;69218;52.132;5.418;2024-03-06T10:44:52;102472.50;;;8.86;100.00
79729;BME280;69218;52.132;5.418;2024-03-06T10:47:20;102464.59;;;8.87;100.00
79729;BME280;69218;52.132;5.418;2024-03-06T10:49:48;102473.44;;;8.85;100.00
79729;BME280;69218;52.132;5.418;2024-03-06T10:52:15;102473.78;;;8.77;100.00
79729;BME280;69218;52.132;5.418;2024-03-06T10:54:44;102470.75;;;8.67;100.00
79729;BME280;69218;52.132;5.418;2024-03-06T10:57:13;102475.19;;;8.65;100.00
79729;BME280;69218;52.132;5.418;2024-03-06T10:59:40;102473.41;;;8.66;100.00
79729;BME280;69218;52.132;5.418;2024-03-06T11:02:10;102481.97;;;8.69;100.00
79729;BME280;69218;52.132;5.418;2024-03-06T11:04:39;102477.31;;;8.76;100.00
79729;BME280;69218;52.132;5.418;2024-03-06T11:07:08;102476.19;;;9.00;100.00
79729;BME280;69218;52.132;5.418;2024-03-06T11:09:39;102480.00;;;9.12;100.00
79729;BME280;69218;52.132;5.418;2024-03-06T11:12:06;102477.94;;;9.19;100.00
79729;BME280;69218;52.132;5.418;2024-03-06T11:14:36;102480.19;;;9.07;100.00
79729;BME280;69218;52.132;5.418;2024-03-06T11:17:10;102489.88;;;9.24;100.00
79729;BME280;69218;52.132;5.418;2024-03-06T11:20:18;102481.19;;;9.60;100.00
79729;BME280;69218;52.132;5.418;2024-03-06T11:26:05;102482.44;;;9.51;100.00
79729;BME280;69218;52.132;5.418;2024-03-06T11:28:34;102482.44;;;9.34;100.00
79729;BME280;69218;52.132;5.418;2024-03-06T11:31:08;102490.44;;;9.31;100.00
79729;BME280;69218;52.132;5.418;2024-03-06T11:33:44;102483.25;;;9.53;100.00
79729;BME280;69218;52.132;5.418;2024-03-06T11:36:25;102487.72;;;9.69;100.00
79729;BME280;69218;52.132;5.418;2024-03-06T11:41:23;102496.16;;;9.39;100.00
79729;BME280;69218;52.132;5.418;2024-03-06T11:43:52;102495.63;;;9.50;100.00
79729;BME280;69218;52.132;5.418;2024-03-06T11:46:46;102488.44;;;9.89;100.00
79729;BME280;69218;52.132;5.418;2024-03-06T11:49:17;102495.28;;;10.09;100.00
79729;BME280;69218;52.132;5.418;2024-03-06T11:51:47;102493.59;;;10.26;100.00
79729;BME280;69218;52.132;5.418;2024-03-06T11:54:14;102491.41;;;10.34;100.00
79729;BME280;69218;52.132;5.418;2024-03-06T11:56:44;102487.00;;;10.52;100.00
79729;BME280;69218;52.132;5.418;2024-03-06T11:59:11;102493.72;;;10.57;100.00
79729;BME280;69218;52.132;5.418;2024-03-06T12:01:37;102492.38;;;10.66;100.00
79729;BME280;69218;52.132;5.418;2024-03-06T12:04:06;102501.94;;;10.50;100.00
79729;BME280;69218;52.132;5.418;2024-03-06T12:06:32;102494.16;;;10.48;100.00
79729;BME280;69218;52.132;5.418;2024-03-06T12:09:00;102495.28;;;10.44;100.00
79729;BME280;69218;52.132;5.418;2024-03-06T12:11:26;102495.81;;;10.33;100.00
79729;BME280;69218;52.132;5.418;2024-03-06T12:13:55;102492.41;;;10.49;100.00
79729;BME280;69218;52.132;5.418;2024-03-06T12:16:22;102498.88;;;10.75;100.00
79729;BME280;69218;52.132;5.418;2024-03-06T12:18:58;102493.22;;;10.98;100.00
79729;BME280;69218;52.132;5.418;2024-03-06T12:21:30;102495.88;;;11.14;99.73
79729;BME280;69218;52.132;5.418;2024-03-06T12:24:23;102494.75;;;11.34;98.67
79729;BME280;69218;52.132;5.418;2024-03-06T12:26:59;102497.81;;;11.42;98.98
79729;BME280;69218;52.132;5.418;2024-03-06T12:29:28;102497.81;;;11.42;97.18
79729;BME280;69218;52.132;5.418;2024-03-06T12:31:56;102498.22;;;11.50;95.64
79729;BME280;69218;52.132;5.418;2024-03-06T12:34:23;102490.44;;;11.63;95.20
79729;BME280;69218;52.132;5.418;2024-03-06T12:36:50;102489.84;;;11.73;92.51
79729;BME280;69218;52.132;5.418;2024-03-06T12:39:17;102495.69;;;11.78;92.26
79729;BME280;69218;52.132;5.418;2024-03-06T12:41:50;102498.91;;;11.83;91.12
79729;BME280;69218;52.132;5.418;2024-03-06T12:44:19;102497.25;;;11.97;90.73
79729;BME280;69218;52.132;5.418;2024-03-06T12:46:46;102502.63;;;12.09;89.48
79729;BME280;69218;52.132;5.418;2024-03-06T12:49:12;102491.50;;;12.20;87.43
79729;BME280;69218;52.132;5.418;2024-03-06T12:51:39;102490.66;;;12.34;86.92
79729;BME280;69218;52.132;5.418;2024-03-06T12:54:06;102483.06;;;12.44;84.43
79729;BME280;69218;52.132;5.418;2024-03-06T12:56:35;102492.06;;;12.54;83.73
79729;BME280;69218;52.132;5.418;2024-03-06T12:59:02;102488.78;;;12.50;80.42
79729;BME280;69218;52.132;5.418;2024-03-06T13:01:30;102478.75;;;12.43;81.59
79729;BME280;69218;52.132;5.418;2024-03-06T13:03:56;102480.06;;;12.64;82.81
79729;BME280;69218;52.132;5.418;2024-03-06T13:06:32;102475.72;;;12.77;81.14